Time;durP1;ratioP1;P1;durP2;ratioP2;P2;SDS_P1;SDS_P2;PMS_P1;PMS_P2;Temp;Humidity;BMP_temperature;BMP_pressure;BME280_temperature;BME280_humidity;BME280_pressure;Samples;Min_cycle;Max_cycle;Signal;HPM_P1;HPM_P2
2021/08/12 00:00:10;;;;;;;;;22.00;18.00;;;;;24.37;45.35;101415.66;5080718;27;45289;-48
2021/08/12 00:02:35;;;;;;;;;19.75;17.00;;;;;24.34;45.56;101412.19;5079429;28;46506;-50
2021/08/12 00:05:01;;;;;;;;;16.50;14.75;;;;;24.30;45.66;101397.22;5079226;28;45327;-52
2021/08/12 00:07:26;;;;;;;;;16.25;14.00;;;;;24.29;45.73;101400.00;5080824;28;45197;-48
2021/08/12 00:09:52;;;;;;;;;15.75;15.25;;;;;24.26;45.65;101397.50;5080724;28;45239;-52
2021/08/12 00:12:17;;;;;;;;;18.25;16.75;;;;;24.24;45.88;101394.03;5080317;28;46022;-51
2021/08/12 00:14:42;;;;;;;;;16.50;16.00;;;;;24.21;45.71;101387.03;5080560;28;45220;-52
2021/08/12 00:17:09;;;;;;;;;13.00;13.00;;;;;24.19;45.66;101399.72;5080808;28;45468;-50
2021/08/12 00:19:34;;;;;;;;;18.25;14.50;;;;;24.17;45.87;101399.78;5080388;28;45442;-50
2021/08/12 00:21:59;;;;;;;;;17.75;15.75;;;;;24.13;45.58;101384.84;5080260;27;46181;-51
2021/08/12 00:24:25;;;;;;;;;17.50;15.00;;;;;24.13;45.84;101384.84;5079330;28;45262;-53
2021/08/12 00:26:50;;;;;;;;;16.50;15.75;;;;;24.11;45.94;101383.19;5079294;28;45447;-50
2021/08/12 00:29:15;;;;;;;;;16.75;15.50;;;;;24.09;46.17;101390.50;5079079;28;45447;-51
2021/08/12 00:31:41;;;;;;;;;13.50;12.75;;;;;24.08;45.98;101400.34;5080439;28;46118;-52
2021/08/12 00:34:06;;;;;;;;;15.50;13.75;;;;;24.06;45.88;101401.41;5080143;28;45220;-51
2021/08/12 00:36:32;;;;;;;;;16.75;14.75;;;;;24.02;46.31;101384.63;5080654;28;45272;-52
2021/08/12 00:38:57;;;;;;;;;21.75;18.00;;;;;24.01;46.14;101386.47;5080130;28;45400;-50
2021/08/12 00:41:22;;;;;;;;;16.75;13.00;;;;;23.99;46.37;101380.31;5079930;27;45931;-47
2021/08/12 00:43:48;;;;;;;;;13.50;13.50;;;;;23.95;46.21;101384.16;5079340;28;45347;-50
2021/08/12 00:46:13;;;;;;;;;17.00;15.50;;;;;23.96;46.12;101383.19;5080306;28;45358;-48
2021/08/12 00:48:39;;;;;;;;;14.25;13.50;;;;;23.93;46.43;101383.38;5080155;28;45144;-52
2021/08/12 00:51:04;;;;;;;;;16.25;14.25;;;;;23.91;46.36;101382.63;5080004;27;45313;-52
2021/08/12 00:53:29;;;;;;;;;19.25;18.00;;;;;23.89;46.42;101372.91;5080102;28;45370;-50
2021/08/12 00:55:55;;;;;;;;;14.00;13.75;;;;;23.87;46.40;101372.97;5080355;28;45313;-50
2021/08/12 00:58:20;;;;;;;;;16.25;15.75;;;;;23.84;46.34;101365.13;5078101;27;45337;-48
2021/08/12 01:00:50;;;;;;;;;16.75;15.50;;;;;23.83;46.51;101384.84;5080069;28;45334;-52
2021/08/12 01:03:18;;;;;;;;;14.25;14.25;;;;;23.80;46.52;101375.16;5080086;28;45375;-51
2021/08/12 01:05:55;;;;;;;;;15.00;14.00;;;;;23.78;46.63;101374.38;5080075;28;45397;-51
2021/08/12 01:08:45;;;;;;;;;20.50;17.00;;;;;23.75;46.58;101371.91;5079708;28;45402;-50
2021/08/12 01:11:22;;;;;;;;;21.50;18.50;;;;;23.71;46.54;101370.34;5079589;27;46052;-48
2021/08/12 01:13:59;;;;;;;;;20.50;17.25;;;;;23.68;46.62;101374.09;5079594;28;45441;-52
2021/08/12 01:16:29;;;;;;;;;20.50;18.75;;;;;23.65;46.78;101365.34;5079722;28;45436;-51
2021/08/12 01:19:00;;;;;;;;;20.25;16.50;;;;;23.61;47.16;101359.31;5079712;28;45395;-49
2021/08/12 01:21:44;;;;;;;;;22.25;18.25;;;;;23.60;46.97;101362.94;5077899;28;46761;-50
2021/08/12 01:24:12;;;;;;;;;22.25;18.25;;;;;23.58;46.87;101366.66;5079572;28;45429;-49
2021/08/12 01:26:41;;;;;;;;;21.00;18.25;;;;;23.55;47.02;101375.75;5079578;28;45466;-51
2021/08/12 01:29:10;;;;;;;;;24.00;21.50;;;;;23.53;47.17;101377.66;5079406;28;45587;-51
2021/08/12 01:32:01;;;;;;;;;20.25;18.25;;;;;23.50;47.17;101375.19;5079598;28;46445;-51
2021/08/12 01:34:45;;;;;;;;;19.25;18.75;;;;;23.47;46.79;101376.22;5078067;28;45239;-49
2021/08/12 01:37:13;;;;;;;;;16.25;16.25;;;;;23.44;46.97;101373.69;5079511;28;45410;-51
2021/08/12 01:39:40;;;;;;;;;23.50;22.75;;;;;23.43;47.12;101368.44;5078041;28;45317;-52
2021/08/12 01:42:07;;;;;;;;;18.50;18.00;;;;;23.40;47.13;101364.13;5078802;28;45541;-52
2021/08/12 01:44:33;;;;;;;;;19.25;17.75;;;;;23.37;47.38;101370.53;5079615;28;45358;-49
2021/08/12 01:46:59;;;;;;;;;16.75;16.50;;;;;23.36;47.47;101371.47;5079386;28;45273;-51
2021/08/12 01:49:26;;;;;;;;;20.50;19.25;;;;;23.32;47.50;101369.06;5079712;28;45264;-52
2021/08/12 01:51:53;;;;;;;;;20.25;18.75;;;;;23.30;47.37;101373.66;5079073;27;46430;-51
2021/08/12 01:54:20;;;;;;;;;19.25;19.00;;;;;23.28;47.17;101367.50;5079393;28;45394;-53
2021/08/12 01:56:45;;;;;;;;;19.50;18.25;;;;;23.28;47.47;101364.81;5081627;28;45469;-51
2021/08/12 01:59:12;;;;;;;;;18.00;16.75;;;;;23.26;47.53;101367.59;5082746;28;45468;-51
2021/08/12 02:01:38;;;;;;;;;15.75;15.75;;;;;23.25;47.43;101365.03;5082470;27;45640;-51
2021/08/12 02:04:04;;;;;;;;;19.25;18.00;;;;;23.23;47.44;101365.09;5082626;27;45386;-51
2021/08/12 02:06:39;;;;;;;;;19.25;17.50;;;;;23.20;47.62;101365.28;5082665;28;45560;-52
2021/08/12 02:09:05;;;;;;;;;20.50;16.50;;;;;23.18;47.99;101370.72;5082755;27;45299;-51
2021/08/12 02:11:33;;;;;;;;;14.75;13.75;;;;;23.16;47.70;101369.09;5080890;28;45826;-48
2021/08/12 02:13:59;;;;;;;;;15.00;15.00;;;;;23.15;47.84;101372.69;5082703;28;45322;-50
2021/08/12 02:16:24;;;;;;;;;22.00;20.50;;;;;23.12;47.87;101368.38;5082415;28;46006;-50
2021/08/12 02:18:49;;;;;;;;;24.50;22.50;;;;;23.11;47.41;101374.69;5082658;28;45430;-50
2021/08/12 02:21:24;;;;;;;;;24.50;22.00;;;;;23.09;47.93;101368.53;5082111;27;46322;-51
2021/08/12 02:24:03;;;;;;;;;23.25;19.00;;;;;23.07;47.98;101365.09;5082346;28;45333;-51
2021/08/12 02:26:39;;;;;;;;;18.75;17.50;;;;;23.04;47.86;101362.56;5081955;28;45245;-53
2021/08/12 02:29:05;;;;;;;;;19.25;19.25;;;;;23.01;48.06;101360.09;5082089;28;45168;-51
2021/08/12 02:31:30;;;;;;;;;20.00;19.50;;;;;22.97;48.36;101354.03;5082020;27;45964;-51
2021/08/12 02:33:57;;;;;;;;;25.00;20.50;;;;;22.97;47.96;101355.84;5082183;28;45263;-50
2021/08/12 02:36:23;;;;;;;;;25.25;24.00;;;;;22.93;47.86;101352.47;5082426;28;45268;-53
2021/08/12 02:38:50;;;;;;;;;18.50;18.50;;;;;22.92;48.02;101357.91;5081975;28;45336;-52
2021/08/12 02:41:19;;;;;;;;;24.00;19.25;;;;;22.89;48.24;101356.25;5081774;28;45351;-52
2021/08/12 02:43:45;;;;;;;;;23.00;20.50;;;;;22.87;48.27;101360.88;5081908;28;45256;-49
2021/08/12 02:46:12;;;;;;;;;29.50;21.75;;;;;22.85;48.18;101365.44;5082304;28;45212;-52
2021/08/12 02:48:38;;;;;;;;;26.75;22.75;;;;;22.83;48.25;101365.53;5081865;28;45415;-51
2021/08/12 02:51:04;;;;;;;;;25.25;24.50;;;;;22.82;48.49;101370.97;5081875;28;46257;-52
2021/08/12 02:53:32;;;;;;;;;28.00;22.50;;;;;22.79;48.40;101372.00;5081983;28;45326;-53
2021/08/12 02:56:01;;;;;;;;;28.50;26.00;;;;;22.77;48.50;101360.50;5081995;28;45369;-51
2021/08/12 02:58:31;;;;;;;;;35.00;26.00;;;;;22.77;48.11;101359.66;5081309;27;45189;-52
2021/08/12 03:00:57;;;;;;;;;23.25;22.00;;;;;22.75;48.51;101366.91;5081577;27;46210;-52
2021/08/12 03:03:24;;;;;;;;;30.00;26.00;;;;;22.70;48.49;101365.34;5080291;28;45251;-52
2021/08/12 03:05:50;;;;;;;;;20.00;20.00;;;;;22.70;48.65;101360.00;5081971;28;45228;-50
2021/08/12 03:08:18;;;;;;;;;28.00;26.50;;;;;22.70;49.05;101353.75;5079551;28;45486;-52
2021/08/12 03:10:43;;;;;;;;;29.00;26.50;;;;;22.69;48.88;101350.22;5080321;27;45519;-52
2021/08/12 03:13:11;;;;;;;;;27.50;24.50;;;;;22.66;48.91;101350.38;5081162;28;45363;-51
2021/08/12 03:15:38;;;;;;;;;26.00;23.75;;;;;22.66;48.73;101360.25;5081728;28;45386;-51
2021/08/12 03:18:04;;;;;;;;;25.50;21.50;;;;;22.65;48.59;101355.84;5081223;28;45536;-51
2021/08/12 03:20:30;;;;;;;;;24.75;22.50;;;;;22.62;48.67;101354.19;5081094;28;46248;-52
2021/08/12 03:22:57;;;;;;;;;26.00;24.00;;;;;22.60;48.65;101349.88;5081178;27;45184;-50
2021/08/12 03:25:23;;;;;;;;;24.75;24.25;;;;;22.59;49.16;101349.00;5063281;28;45326;-52
2021/08/12 03:27:49;;;;;;;;;27.25;25.00;;;;;22.58;49.23;101341.03;5080813;28;45488;-52
2021/08/12 03:30:15;;;;;;;;;23.75;23.75;;;;;22.57;48.88;101345.53;5081076;27;46447;-47
2021/08/12 03:32:40;;;;;;;;;30.00;27.50;;;;;22.55;49.20;101348.31;5079817;28;45344;-50
2021/08/12 03:35:06;;;;;;;;;30.75;28.00;;;;;22.55;48.92;101350.09;5081574;27;45457;-51
2021/08/12 03:37:31;;;;;;;;;28.00;27.50;;;;;22.53;49.33;101349.34;5079851;28;45390;-50
2021/08/12 03:39:57;;;;;;;;;26.25;26.00;;;;;22.49;49.20;101345.09;5081055;27;45292;-50
2021/08/12 03:42:23;;;;;;;;;32.00;27.50;;;;;22.50;48.80;101346.81;5079380;28;45496;-51
2021/08/12 03:44:48;;;;;;;;;23.75;23.00;;;;;22.49;48.83;101353.13;5081399;28;45347;-50
2021/08/12 03:47:13;;;;;;;;;27.00;24.00;;;;;22.47;49.29;101349.69;5081025;28;45441;-51
2021/08/12 03:49:39;;;;;;;;;24.75;22.00;;;;;22.47;48.97;101349.69;5080916;28;46208;-50
2021/08/12 03:52:05;;;;;;;;;21.00;20.00;;;;;22.46;49.44;101351.47;5080820;28;45170;-50
2021/08/12 03:54:31;;;;;;;;;25.50;21.75;;;;;22.45;49.26;101351.56;5079897;28;45267;-49
2021/08/12 03:56:57;;;;;;;;;21.50;20.00;;;;;22.44;49.29;101353.41;5080394;28;45445;-50
2021/08/12 03:59:22;;;;;;;;;20.00;19.00;;;;;22.42;49.24;101352.59;5080683;28;45555;-51
2021/08/12 04:01:48;;;;;;;;;17.75;16.50;;;;;22.40;49.08;101341.09;5080716;28;45325;-51
2021/08/12 04:04:13;;;;;;;;;21.00;18.50;;;;;22.39;48.91;101348.28;5080968;28;45457;-52
2021/08/12 04:06:39;;;;;;;;;18.00;15.50;;;;;22.38;49.29;101345.69;5080802;28;45761;-52
2021/08/12 04:09:04;;;;;;;;;17.00;16.00;;;;;22.37;49.28;101349.31;5079606;28;46143;-51
2021/08/12 04:11:29;;;;;;;;;17.50;14.50;;;;;22.28;49.16;101326.56;5080485;27;45370;-52
2021/08/12 04:13:55;;;;;;;;;17.50;13.50;;;;;22.33;48.92;101339.69;5062796;28;45346;-50
2021/08/12 04:16:20;;;;;;;;;14.75;14.75;;;;;22.32;49.31;101338.81;5080566;28;45288;-52
2021/08/12 04:18:45;;;;;;;;;14.75;13.75;;;;;22.33;49.51;101345.91;5079543;28;45379;-49
2021/08/12 04:21:11;;;;;;;;;15.75;13.75;;;;;22.31;49.40;101339.75;5079919;28;45276;-49
2021/08/12 04:23:36;;;;;;;;;19.25;13.75;;;;;;;;5080891;28;45294;-49
2021/08/12 04:26:01;;;;;;;;;14.00;13.00;;;;;22.27;49.23;101337.34;5080488;28;45217;-50
2021/08/12 04:28:27;;;;;;;;;18.25;14.00;;;;;22.25;49.42;101340.13;5080188;28;46122;-49
2021/08/12 04:30:52;;;;;;;;;16.50;14.00;;;;;22.24;49.21;101335.72;5080332;28;45381;-49
2021/08/12 04:33:18;;;;;;;;;13.00;13.00;;;;;22.21;49.52;101338.53;5080733;28;45203;-51
2021/08/12 04:35:44;;;;;;;;;15.50;14.75;;;;;22.22;49.50;101333.09;5080592;27;45235;-50
2021/08/12 04:38:10;;;;;;;;;16.00;12.75;;;;;22.20;49.24;101334.13;5080365;28;45270;-50
2021/08/12 04:40:36;;;;;;;;;16.50;12.00;;;;;22.15;49.34;101333.50;5080025;28;45316;-49
2021/08/12 04:43:02;;;;;;;;;13.50;10.25;;;;;22.16;49.18;101337.91;5080178;28;45806;-50
2021/08/12 04:45:28;;;;;;;;;13.50;13.50;;;;;22.14;49.65;101331.78;5080261;28;45423;-51
2021/08/12 04:48:02;;;;;;;;;12.25;11.00;;;;;22.13;49.35;101338.94;5078997;28;45345;-51
2021/08/12 04:50:27;;;;;;;;;13.75;13.75;;;;;22.13;49.37;101338.09;5080106;27;45339;-53
2021/08/12 04:52:53;;;;;;;;;13.00;11.25;;;;;22.10;49.52;101333.78;5080207;28;45429;-52
2021/08/12 04:55:18;;;;;;;;;15.00;14.25;;;;;22.07;49.65;101329.44;5079965;28;45255;-52
2021/08/12 04:57:44;;;;;;;;;17.00;14.00;;;;;22.08;49.30;101336.50;5079939;28;45320;-51
2021/08/12 05:00:10;;;;;;;;;17.25;14.25;;;;;22.05;49.74;101334.00;5079660;28;45315;-52
2021/08/12 05:02:35;;;;;;;;;15.75;15.00;;;;;22.04;49.73;101342.97;5080255;27;45265;-51
2021/08/12 05:05:01;;;;;;;;;15.00;14.50;;;;;22.02;49.44;101344.84;5078484;28;45546;-48
2021/08/12 05:07:26;;;;;;;;;13.50;12.00;;;;;22.02;49.46;101339.50;5079934;28;46126;-52
2021/08/12 05:09:51;;;;;;;;;15.50;14.00;;;;;22.01;49.74;101332.44;5078373;28;45289;-52
2021/08/12 05:12:19;;;;;;;;;16.50;12.00;;;;;21.99;49.49;101328.97;5079897;28;45315;-50
2021/08/12 05:14:44;;;;;;;;;13.75;13.25;;;;;21.99;49.88;101336.16;5079881;28;45543;-49
2021/08/12 05:17:10;;;;;;;;;10.75;10.50;;;;;21.98;49.41;101337.09;5078375;28;47220;-49
2021/08/12 05:19:35;;;;;;;;;12.50;11.25;;;;;21.95;49.75;101338.13;5079553;28;45310;-47
2021/08/12 05:22:00;;;;;;;;;13.00;12.00;;;;;21.92;50.12;101336.47;5078359;28;45278;-49
2021/08/12 05:24:26;;;;;;;;;14.50;12.25;;;;;21.92;49.99;101331.13;5078645;28;45516;-51
2021/08/12 05:26:51;;;;;;;;;13.50;11.50;;;;;21.90;49.61;101335.69;5079374;28;45995;-50
2021/08/12 05:29:16;;;;;;;;;14.50;12.00;;;;;21.90;49.83;101330.34;5079799;28;45274;-52
2021/08/12 05:31:42;;;;;;;;;14.50;14.50;;;;;21.91;49.95;101334.75;5082415;27;45410;-49
2021/08/12 05:34:07;;;;;;;;;16.00;14.75;;;;;21.90;50.27;101338.34;5083145;28;45401;-52
2021/08/12 05:36:32;;;;;;;;;12.50;12.00;;;;;21.91;49.55;101341.88;5083191;28;45333;-51
2021/08/12 05:38:58;;;;;;;;;12.50;12.50;;;;;21.91;49.88;101341.88;5083008;28;45384;-51
2021/08/12 05:41:24;;;;;;;;;11.75;11.50;;;;;21.88;49.83;101336.72;5083066;27;45267;-49
2021/08/12 05:43:49;;;;;;;;;13.75;12.25;;;;;21.90;50.13;101340.19;5082859;28;45453;-51
2021/08/12 05:46:15;;;;;;;;;18.00;16.50;;;;;21.90;49.84;101340.19;5082980;28;46117;-52
2021/08/12 05:48:40;;;;;;;;;17.50;14.75;;;;;21.89;50.14;101343.78;5082899;28;45443;-52
2021/08/12 05:51:05;;;;;;;;;14.00;11.50;;;;;21.88;50.15;101334.03;5081688;27;45319;-52
2021/08/12 05:53:31;;;;;;;;;13.00;10.75;;;;;21.87;49.98;101341.22;5081597;28;45954;-50
2021/08/12 05:55:56;;;;;;;;;13.50;11.25;;;;;21.88;49.83;101336.72;5082799;28;47060;-50
2021/08/12 05:58:22;;;;;;;;;74.67;62.33;;;;;21.87;50.23;101335.84;5082317;28;45283;-52
2021/08/12 06:00:47;;;;;;;;;22.25;18.75;;;;;21.87;50.02;101338.53;5082691;27;45480;-49
2021/08/12 06:03:14;;;;;;;;;36.25;31.25;;;;;21.87;50.20;101340.31;5082737;28;45407;-50
2021/08/12 06:05:40;;;;;;;;;15.25;13.50;;;;;21.87;50.46;101341.22;5082798;28;45271;-50
2021/08/12 06:08:08;;;;;;;;;16.75;13.50;;;;;21.88;50.44;101353.63;5082493;28;45327;-51
2021/08/12 06:10:35;;;;;;;;;15.25;14.25;;;;;21.89;50.06;101359.84;5082780;27;45260;-51
2021/08/12 06:13:00;;;;;;;;;18.25;16.25;;;;;21.89;50.58;101357.19;5082251;28;45378;-51
2021/08/12 06:15:28;;;;;;;;;15.50;14.25;;;;;21.89;50.26;101350.00;5082521;28;46183;-49
2021/08/12 06:17:53;;;;;;;;;16.25;12.00;;;;;21.90;50.54;101351.72;5081388;28;45209;-51
2021/08/12 06:20:20;;;;;;;;;17.00;16.50;;;;;21.92;50.38;101354.31;5082307;27;45162;-51
2021/08/12 06:22:46;;;;;;;;;12.50;11.75;;;;;21.92;50.73;101359.66;5082220;28;45451;-47
2021/08/12 06:25:13;;;;;;;;;18.00;15.50;;;;;21.93;50.29;101356.06;5082414;28;45257;-52
2021/08/12 06:27:39;;;;;;;;;13.50;9.00;;;;;21.95;50.79;101370.22;5081871;28;45287;-51
2021/08/12 06:30:07;;;;;;;;;18.25;16.25;;;;;21.95;50.35;101362.22;5081230;27;45437;-51
2021/08/12 06:32:32;;;;;;;;;21.00;20.75;;;;;21.94;50.63;101360.47;5082075;28;45209;-51
2021/08/12 06:34:58;;;;;;;;;21.00;18.50;;;;;21.98;50.61;101367.38;5082348;27;45347;-50
2021/08/12 06:37:24;;;;;;;;;18.75;15.50;;;;;21.99;50.23;101368.25;5082091;28;45214;-52
2021/08/12 06:39:49;;;;;;;;;20.00;15.50;;;;;22.01;50.65;101367.25;5081003;27;45335;-53
2021/08/12 06:42:15;;;;;;;;;18.25;16.00;;;;;22.02;50.65;101366.25;5080445;28;45446;-49
2021/08/12 06:44:40;;;;;;;;;15.00;14.25;;;;;22.04;50.43;101366.22;5082129;28;46105;-48
2021/08/12 06:47:05;;;;;;;;;19.50;17.25;;;;;22.06;50.55;101357.16;5081893;28;45251;-49
2021/08/12 06:49:31;;;;;;;;;17.50;13.50;;;;;22.07;50.91;101364.25;5082313;28;45274;-51
2021/08/12 06:51:56;;;;;;;;;16.00;12.75;;;;;22.10;50.62;101365.88;5081814;27;45218;-48
2021/08/12 06:54:21;;;;;;;;;15.00;14.50;;;;;22.12;50.70;101360.44;5082205;28;45258;-49
2021/08/12 06:56:46;;;;;;;;;15.75;14.00;;;;;22.13;50.26;101373.75;5081493;28;45413;-48
2021/08/12 06:59:12;;;;;;;;;13.25;13.00;;;;;22.16;50.43;101367.34;5082273;28;45493;-51
2021/08/12 07:01:37;;;;;;;;;16.75;15.00;;;;;22.20;50.43;101364.44;5081715;27;45457;-47
2021/08/12 07:04:03;;;;;;;;;23.00;15.75;;;;;22.20;50.76;101356.41;5063560;28;45647;-51
2021/08/12 07:06:29;;;;;;;;;16.75;15.00;;;;;22.23;50.47;101347.34;5081603;28;45430;-50
2021/08/12 07:08:54;;;;;;;;;15.75;12.50;;;;;22.27;50.70;101354.25;5081930;28;45345;-51
2021/08/12 07:11:23;;;;;;;;;16.75;14.00;;;;;22.31;50.55;101339.75;5081547;27;45539;-51
2021/08/12 07:13:49;;;;;;;;;18.50;15.75;;;;;22.33;50.45;101337.03;5097334;27;48251;-52
2021/08/12 07:16:16;;;;;;;;;12.25;12.25;;;;;22.35;51.09;101333.31;5081373;28;45357;-49
2021/08/12 07:18:42;;;;;;;;;14.00;13.00;;;;;22.37;50.73;101342.13;5081567;28;45248;-49
2021/08/12 07:21:21;;;;;;;;;14.75;13.50;;;;;22.41;50.84;101345.50;5079769;27;45558;-50
2021/08/12 07:23:47;;;;;;;;;17.00;13.75;;;;;22.44;50.89;101347.16;5081441;28;47215;-50
2021/08/12 07:26:14;;;;;;;;;17.50;13.75;;;;;22.48;50.84;101351.41;5080985;28;45312;-52
2021/08/12 07:28:41;;;;;;;;;12.50;12.25;;;;;22.50;50.79;101350.38;5081473;28;45356;-50
2021/08/12 07:31:12;;;;;;;;;15.75;12.75;;;;;22.49;51.01;101350.44;5081189;28;45336;-49
2021/08/12 07:33:38;;;;;;;;;14.00;14.00;;;;;22.58;50.86;101354.44;5081252;28;46096;-50
2021/08/12 07:36:05;;;;;;;;;14.75;12.00;;;;;22.61;51.05;101362.31;5079857;28;45504;-50
2021/08/12 07:38:31;;;;;;;;;9.25;9.25;;;;;22.65;50.80;101358.50;5081363;28;45326;-53
2021/08/12 07:40:58;;;;;;;;;14.75;13.00;;;;;22.66;51.03;101353.06;5080996;27;45160;-52
2021/08/12 07:43:24;;;;;;;;;15.25;13.75;;;;;22.70;50.99;101351.06;5081020;28;45392;-50
2021/08/12 07:45:49;;;;;;;;;17.50;16.25;;;;;22.75;50.99;101354.34;5080939;28;45308;-48
2021/08/12 07:48:15;;;;;;;;;13.75;12.25;;;;;22.79;50.94;101349.69;5081204;28;45268;-52
2021/08/12 07:50:41;;;;;;;;;11.75;11.75;;;;;22.82;50.93;101341.50;5080931;27;45299;-52
2021/08/12 07:53:06;;;;;;;;;16.50;14.25;;;;;22.88;51.25;101341.16;5080678;28;45390;-51
2021/08/12 07:55:32;;;;;;;;;15.00;12.50;;;;;22.93;50.91;101343.56;5080806;28;45281;-51
2021/08/12 07:57:58;;;;;;;;;15.25;15.25;;;;;22.98;50.74;101347.72;5080801;28;45346;-49
2021/08/12 08:00:23;;;;;;;;;13.00;13.00;;;;;23.02;50.92;101341.22;5080799;27;45211;-51
2021/08/12 08:02:50;;;;;;;;;13.00;12.25;;;;;23.09;50.75;101340.88;5080820;28;46221;-51
2021/08/12 08:05:18;;;;;;;;;15.75;14.25;;;;;23.14;51.36;101339.63;5080772;28;45228;-50
2021/08/12 08:07:45;;;;;;;;;14.00;12.25;;;;;23.20;50.92;101342.00;5080831;28;45414;-52
2021/08/12 08:10:11;;;;;;;;;10.75;10.25;;;;;23.26;51.09;101348.84;5080502;28;45256;-51
2021/08/12 08:12:38;;;;;;;;;12.75;11.25;;;;;23.33;51.28;101347.53;5079166;28;45357;-49
2021/08/12 08:15:03;;;;;;;;;12.00;10.75;;;;;23.38;50.86;101341.88;5080735;28;45161;-53
2021/08/12 08:17:29;;;;;;;;;12.25;10.00;;;;;23.45;51.04;101340.56;5080759;28;45242;-53
2021/08/12 08:19:56;;;;;;;;;15.50;12.75;;;;;23.50;51.04;101334.94;5080398;28;45302;-52
2021/08/12 08:22:21;;;;;;;;;10.25;9.00;;;;;23.59;50.92;101341.59;5080467;28;46357;-52
2021/08/12 08:24:47;;;;;;;;;15.50;14.00;;;;;23.67;50.84;101347.34;5080483;28;45229;-51
2021/08/12 08:27:12;;;;;;;;;10.75;9.50;;;;;23.71;50.91;101340.84;5080422;28;45268;-49
2021/08/12 08:29:37;;;;;;;;;10.75;10.25;;;;;23.79;51.02;101340.38;5080292;28;45292;-48
2021/08/12 08:32:03;;;;;;;;;10.00;10.00;;;;;23.83;50.84;101326.66;5080231;27;46090;-50
2021/08/12 08:34:28;;;;;;;;;14.75;11.00;;;;;23.90;50.67;101324.50;5080221;28;45333;-48
2021/08/12 08:36:54;;;;;;;;;12.00;10.25;;;;;23.98;50.74;101335.63;5080481;28;45313;-51
2021/08/12 08:39:19;;;;;;;;;14.50;11.25;;;;;24.04;50.81;101328.16;5080195;28;45330;-50
2021/08/12 08:41:45;;;;;;;;;12.00;11.50;;;;;24.10;50.74;101327.78;5078585;28;45917;-52
2021/08/12 08:44:11;;;;;;;;;10.25;10.00;;;;;24.15;50.80;101334.59;5080058;28;45317;-50
2021/08/12 08:46:37;;;;;;;;;11.50;11.50;;;;;24.21;50.70;101341.41;5080234;28;45315;-52
2021/08/12 08:49:03;;;;;;;;;16.25;15.50;;;;;24.26;50.53;101336.59;5080015;28;45190;-50
2021/08/12 08:51:30;;;;;;;;;13.00;11.50;;;;;24.33;51.05;101337.94;5061797;28;45969;-50
2021/08/12 08:53:56;;;;;;;;;12.75;11.50;;;;;24.40;50.19;101346.50;5078738;28;45212;-52
2021/08/12 08:56:23;;;;;;;;;11.75;11.50;;;;;24.47;50.60;101349.66;5078518;28;45450;-52
2021/08/12 08:58:50;;;;;;;;;12.50;12.50;;;;;24.51;50.56;101353.84;5079762;28;45268;-49
2021/08/12 09:01:16;;;;;;;;;17.50;11.75;;;;;24.58;50.27;101355.19;5078512;27;46146;-51
2021/08/12 09:03:41;;;;;;;;;13.00;12.50;;;;;24.63;50.68;101353.06;5079767;28;45244;-51
2021/08/12 09:06:07;;;;;;;;;54.25;42.25;;;;;24.71;50.47;101355.31;5081875;28;45307;-52
2021/08/12 09:08:32;;;;;;;;;13.75;12.50;;;;;24.74;50.28;101357.81;5083362;28;45248;-51
2021/08/12 09:10:58;;;;;;;;;13.75;10.50;;;;;24.83;50.32;101364.41;5083198;27;46143;-52
2021/08/12 09:13:23;;;;;;;;;11.75;10.75;;;;;24.90;50.19;101364.88;5083231;28;45223;-51
2021/08/12 09:15:49;;;;;;;;;14.50;13.50;;;;;24.97;50.46;101360.81;5083763;28;45173;-51
2021/08/12 09:18:27;;;;;;;;;11.25;10.75;;;;;25.03;50.40;101357.72;5083318;28;45231;-53
2021/08/12 09:20:58;;;;;;;;;11.50;10.75;;;;;25.10;50.51;101360.88;5082982;27;46049;-52
2021/08/12 09:23:26;;;;;;;;;12.75;10.50;;;;;25.16;49.97;101360.47;5083094;28;45321;-51
2021/08/12 09:25:52;;;;;;;;;11.25;11.25;;;;;25.23;50.18;101356.41;5083126;28;45270;-51
2021/08/12 09:28:29;;;;;;;;;10.00;9.75;;;;;25.30;49.84;101363.09;5083306;28;45450;-48
2021/08/12 09:31:01;;;;;;;;;14.50;13.50;;;;;25.35;50.39;101365.47;5083017;27;45304;-49
2021/08/12 09:33:40;;;;;;;;;16.50;14.50;;;;;25.41;50.18;101358.88;5083147;28;45282;-52
2021/08/12 09:36:38;;;;;;;;;11.00;10.50;;;;;25.46;49.62;101356.72;5081812;28;45316;-51
2021/08/12 09:39:22;;;;;;;;;12.00;11.00;;;;;25.55;49.59;101355.25;5082733;28;45261;-52
2021/08/12 09:41:52;;;;;;;;;12.25;12.25;;;;;25.61;49.57;101353.00;5081189;27;48151;-52
2021/08/12 09:44:30;;;;;;;;;11.00;10.75;;;;;25.69;49.64;101346.22;5083000;28;45360;-53
2021/08/12 09:47:01;;;;;;;;;12.00;12.00;;;;;25.76;49.97;101351.06;5082967;28;45346;-50
2021/08/12 09:49:37;;;;;;;;;11.00;9.00;;;;;25.82;49.40;101351.63;5082846;28;45253;-48
2021/08/12 09:52:27;;;;;;;;;15.50;12.00;;;;;25.94;50.04;101357.00;5081266;27;47229;-52
2021/08/12 09:55:18;;;;;;;;;9.75;9.75;;;;;26.04;50.02;101346.44;5082777;27;45260;-51
2021/08/12 09:57:51;;;;;;;;;12.00;11.50;;;;;26.17;49.78;101351.00;5082797;28;45338;-50
2021/08/12 10:00:31;;;;;;;;;11.00;10.50;;;;;26.28;49.73;101345.72;5082325;28;45302;-53
2021/08/12 10:02:57;;;;;;;;;12.25;11.75;;;;;26.39;49.75;101345.81;5082793;28;45380;-51
2021/08/12 10:05:23;;;;;;;;;11.00;10.25;;;;;26.46;49.40;101343.53;5082411;28;45286;-52
2021/08/12 10:07:50;;;;;;;;;14.25;11.50;;;;;26.59;49.56;101341.69;5082875;28;45292;-51
2021/08/12 10:10:18;;;;;;;;;11.50;10.50;;;;;26.72;49.17;101348.88;5082369;27;45164;-53
2021/08/12 10:12:50;;;;;;;;;13.25;12.00;;;;;26.82;48.84;101341.84;5082125;28;47127;-53
2021/08/12 10:15:21;;;;;;;;;16.50;13.75;;;;;26.93;49.37;101339.22;5069461;28;45389;-52
2021/08/12 10:17:47;;;;;;;;;12.50;12.50;;;;;27.07;48.77;101340.03;5081230;28;45388;-53
2021/08/12 10:20:34;;;;;;;;;12.75;10.50;;;;;27.21;49.24;101336.31;5082469;27;45182;-54
2021/08/12 10:23:05;;;;;;;;;14.75;13.50;;;;;27.35;48.56;101337.97;5080713;28;46156;-52
2021/08/12 10:25:34;;;;;;;;;11.25;11.25;;;;;27.47;48.81;101339.75;5082315;28;45326;-50
2021/08/12 10:28:05;;;;;;;;;9.75;9.50;;;;;27.60;48.78;101341.47;5082093;27;45284;-53
2021/08/12 10:30:32;;;;;;;;;12.25;10.25;;;;;27.70;48.55;101337.97;5082323;28;45371;-52
2021/08/12 10:33:00;;;;;;;;;12.25;11.25;;;;;27.85;48.49;101338.63;5082085;28;45354;-54
2021/08/12 10:35:29;;;;;;;;;12.25;11.75;;;;;27.99;48.27;101331.28;5082204;27;45485;-53
2021/08/12 10:37:55;;;;;;;;;10.00;10.00;;;;;28.15;48.07;101329.09;5081013;28;45415;-53
2021/08/12 10:40:30;;;;;;;;;11.50;8.75;;;;;28.34;48.13;101335.72;5080861;28;45470;-53
2021/08/12 10:42:58;;;;;;;;;13.00;10.75;;;;;28.53;47.72;101329.69;5081721;27;45410;-54
2021/08/12 10:45:25;;;;;;;;;7.25;6.50;;;;;28.73;48.02;101333.50;5080712;28;45279;-55
2021/08/12 10:47:55;;;;;;;;;12.00;10.50;;;;;28.94;47.60;101327.28;5082328;28;45290;-55
2021/08/12 10:50:24;;;;;;;;;13.75;12.25;;;;;29.14;47.67;101323.75;5081848;27;45441;-54
2021/08/12 10:53:06;;;;;;;;;12.50;11.25;;;;;29.38;47.70;101333.53;5081847;28;46267;-55
2021/08/12 10:55:35;;;;;;;;;13.00;10.00;;;;;29.61;47.73;101322.59;5081825;27;45387;-55
2021/08/12 10:58:30;;;;;;;;;12.00;10.00;;;;;29.95;47.30;101323.25;5081636;28;45297;-55
2021/08/12 11:00:57;;;;;;;;;13.00;11.25;;;;;30.25;47.21;101328.81;5072195;27;45179;-55
2021/08/12 11:03:31;;;;;;;;;9.75;8.50;;;;;30.56;47.63;101328.81;5081695;28;45364;-55
2021/08/12 11:06:04;;;;;;;;;10.50;10.50;;;;;30.87;46.67;101328.72;5080555;28;45338;-55
2021/08/12 11:08:52;;;;;;;;;12.25;12.25;;;;;31.23;47.04;101324.50;5081793;28;45400;-54
2021/08/12 11:11:20;;;;;;;;;8.50;8.50;;;;;31.58;46.92;101319.44;5081445;27;45490;-56